Latest Coastal Weather Observations for Rhyll

IDV60701

Issued at 3:55 am EST Thursday 24 April 2014 (issued every 10 minutes, with the page automatically refreshed every 10 minutes)

About coastal observations | Map of coastal stations | Coastal observations for VIC | Marine services | Other Formats
Station Details ID: 086373 Name: RHYLL Lat: -38.46 Lon: 145.31 Height: 13.4 m
Data from the previous 72 hours. | See also: Recent months at Rhyll
Date/Time
EST
Temp

°C
Wind Pressure Rain
since 9am
mm
Weather Cloud Vis
km
Sea
Height
m
Swell
Dir
 
Speed
knots
Gust
knots
hPa Trend Height
m
Period
s
Dir
24/03:30am 14.6 NNW 16 21 1009.1 - 0.0 - - - - - - -
24/03:00am 14.7 NNW 12 19 1009.5 - 0.0 - - - - - - -
24/02:30am 14.2 N 12 18 1009.9 - 0.0 - - - - - - -
24/02:00am 13.4 N 13 16 1010.1 - 0.0 - - - - - - -
24/01:30am 13.6 N 12 16 1010.4 - 0.0 - - - - - - -
24/01:00am 13.8 N 12 16 1010.7 - 0.0 - - - - - - -
24/12:30am 13.8 NNW 10 13 1011.1 - 0.0 - - - - - - -
24/12:00am 14.1 NNW 10 13 1011.4 - 0.0 - - - - - - -
 
Date/Time
EST
Temp

°C
Wind Pressure Rain
since 9am
mm
Weather Cloud Vis
km
Sea
Height
m
Swell
Dir
 
Speed
knots
Gust
knots
hPa Trend Height
m
Period
s
Dir
23/11:30pm 14.1 N 11 14 1011.6 - 0.0 - - - - - - -
23/11:00pm 14.1 N 9 12 1012.0 - 0.0 - - - - - - -
23/10:30pm 14.3 N 8 9 1012.4 - 0.0 - - - - - - -
23/10:00pm 14.4 N 8 9 1012.6 - 0.0 - - - - - - -
23/09:30pm 13.9 N 5 8 1012.7 - 0.0 - - - - - - -
23/09:00pm 13.7 NNW 1 3 1012.8 - 0.0 - - - - - - -
23/08:30pm 13.8 N 3 4 1012.9 - 0.0 - - - - - - -
23/08:00pm 13.4 NNW 2 3 1013.1 - 0.0 - - - - - - -
23/07:30pm 14.0 N 1 2 1013.1 - 0.0 - - - - - - -
23/07:00pm 13.8 CALM 0 1 1013.0 - 0.0 - - - - - - -
23/06:30pm 13.8 NW 2 3 1013.1 - 0.0 - - - - - - -
23/06:00pm 13.8 CALM 0 2 1013.2 - 0.0 - - - - - - -
23/05:30pm 14.8 CALM 0 1 1013.2 - 0.0 - - - - - - -
23/05:00pm 15.8 WNW 3 5 1013.4 - 0.0 - - - - - - -
23/04:30pm 16.5 WNW 2 5 1013.4 - 0.0 - - - - - - -
23/04:00pm 16.3 WNW 3 6 1013.6 - 0.0 - - - - - - -
23/03:30pm 16.6 NNW 5 8 1013.6 - 0.0 - - - - - - -
23/03:00pm 16.6 NNW 6 9 1013.6 - 0.0 - - - - - - -
23/02:30pm 16.8 WNW 3 6 1013.8 - 0.0 - - - - - - -
23/02:00pm 17.1 WNW 5 9 1014.0 - 0.0 - - - - - - -
23/01:30pm 17.6 WNW 4 9 1014.3 - 0.0 - - - - - - -
23/01:00pm 17.8 WNW 4 8 1014.7 - 0.0 - - - - - - -
23/12:30pm 17.9 NNW 5 9 1015.1 - 0.0 - - - - - - -
23/12:00pm 17.5 WNW 4 7 1015.7 - 0.0 - - - - - - -
23/11:30am 17.3 NW 3 5 1015.8 - 0.0 - - - - - - -
23/11:00am 17.1 N 3 5 1016.0 - 0.0 - - - - - - -
23/10:30am 16.6 N 4 5 1016.5 - 0.0 - - - - - - -
23/10:00am 16.7 NW 3 5 1016.7 - 0.0 - - - - - - -
23/09:30am 15.8 NW 3 6 1016.9 - 0.0 - - - - - - -
23/09:00am 15.2 NW 2 4 1016.7 - 0.2 - - - - - - -
23/08:30am 13.9 NNW 2 3 1016.6 - 0.2 - - - - - - -
23/08:00am 13.2 CALM 0 1 1016.6 - 0.2 - - - - - - -
23/07:30am 12.9 CALM 0 0 1016.4 - 0.2 - - - - - - -
23/07:00am 12.4 CALM 0 0 1016.3 - 0.2 - - - - - - -
23/06:30am 13.3 N 2 3 1016.4 - 0.2 - - - - - - -
23/06:00am 12.9 N 1 3 1016.3 - 0.2 - - - - - - -
23/05:30am 13.5 NNE 5 7 1016.2 - 0.2 - - - - - - -
23/05:00am 13.7 NNE 3 4 1016.2 - 0.2 - - - - - - -
23/04:30am 13.2 NNE 2 4 1016.0 - 0.2 - - - - - - -
23/04:00am 13.5 NW 2 2 1016.0 - 0.2 - - - - - - -
23/03:30am 13.6 NNW 1 3 1016.1 - 0.2 - - - - - - -
23/03:00am 13.7 CALM 0 0 1016.3 - 0.2 - - - - - - -
23/02:30am 13.7 CALM 0 0 1016.5 - 0.2 - - - - - - -
23/02:00am 14.4 NW 1 2 1016.8 - 0.2 - - - - - - -
23/01:30am 14.4 NW 2 3 1017.0 - 0.2 - - - - - - -
23/01:00am 14.1 W 1 3 1017.1 - 0.2 - - - - - - -
23/12:30am 14.1 SW 1 2 1017.2 - 0.2 - - - - - - -
23/12:00am 14.5 SW 1 2 1017.3 - 0.2 - - - - - - -
 
Date/Time
EST
Temp

°C
Wind Pressure Rain
since 9am
mm
Weather Cloud Vis
km
Sea
Height
m
Swell
Dir
 
Speed
knots
Gust
knots
hPa Trend Height
m
Period
s
Dir
22/11:30pm 14.5 CALM 0 0 1017.5 - 0.2 - - - - - - -
22/11:00pm 14.6 SW 1 2 1017.8 - 0.2 - - - - - - -
22/10:30pm 14.6 SW 3 4 1018.0 - 0.2 - - - - - - -
22/10:00pm 14.5 WSW 3 4 1018.0 - 0.2 - - - - - - -
22/09:30pm 13.9 WSW 3 4 1017.7 - 0.2 - - - - - - -
22/09:00pm 14.1 W 2 3 1017.5 - 0.2 - - - - - - -
22/08:30pm 14.4 SW 2 3 1017.3 - 0.2 - - - - - - -
22/08:00pm 14.8 SW 2 4 1017.1 - 0.2 - - - - - - -
22/07:30pm 15.1 SSW 4 7 1016.9 - 0.2 - - - - - - -
22/07:00pm 15.1 SW 5 7 1016.7 - 0.2 - - - - - - -
22/06:30pm 15.1 SW 4 7 1016.4 - 0.2 - - - - - - -
22/06:00pm 15.4 SW 5 9 1016.1 - 0.2 - - - - - - -
22/05:30pm 15.6 SW 6 11 1015.6 - 0.2 - - - - - - -
22/05:00pm 15.7 SW 5 7 1015.3 - 0.2 - - - - - - -
22/04:30pm 15.9 SW 7 12 1015.0 - 0.2 - - - - - - -
22/04:00pm 16.1 SW 7 10 1014.9 - 0.2 - - - - - - -
22/03:30pm 15.5 SW 4 6 1014.8 - 0.2 - - - - - - -
22/03:00pm 15.3 WSW 4 7 1014.5 - 0.2 Recent precip. - - - - - -
22/02:30pm 16.8 NW 3 6 1014.3 - 0.0 - - - - - - -
22/02:00pm 16.9 NNW 7 13 1014.1 - 0.0 - - - - - - -
22/01:30pm 16.4 NNW 9 13 1014.2 - 0.0 - - - - - - -
22/01:00pm 15.9 NNW 12 18 1014.3 - 0.0 - - - - - - -
22/12:30pm 16.1 NNW 13 17 1014.5 - 0.0 - - - - - - -
22/12:00pm 16.6 NNW 11 17 1014.4 - 0.0 - - - - - - -
22/11:30am 16.9 NNW 11 15 1014.5 - 0.0 - - - - - - -
22/11:00am 16.4 NNW 12 18 1014.6 - 0.0 - - - - - - -
22/10:30am 15.7 NNW 15 20 1014.4 - 0.0 - - - - - - -
22/10:00am 15.0 NNW 16 22 1014.4 - 0.0 - - - - - - -
22/09:30am 14.8 N 18 22 1014.4 - 0.0 - - - - - - -
22/09:00am 14.2 N 17 22 1014.6 - 6.6 Recent precip. - - - - - -
22/08:30am 13.6 N 18 24 1014.4 - 6.6 - - - - - - -
22/08:00am 13.9 N 20 26 1014.3 - 5.8 - - - - - - -
22/07:30am 14.0 NNW 17 23 1014.5 - 5.0 - - - - - - -
22/07:00am 13.7 NW 9 17 1015.1 - 4.0 - - - - - - -
22/06:30am 14.2 W 7 12 1015.1 - 2.0 - - - - - - -
22/06:00am 14.9 NNW 11 17 1013.7 - 1.0 Rain - - - - - -
22/05:30am 15.3 NW 7 13 1013.3 - 0.2 - - - - - - -
22/05:00am 15.8 WNW 8 16 1013.5 - 0.0 - - - - - - -
22/04:30am 16.4 W 7 12 1012.6 - 0.0 - - - - - - -
22/04:00am 16.8 WNW 6 10 1012.1 - 0.0 - - - - - - -
22/03:30am 17.1 WNW 7 14 1012.2 - 0.0 - - - - - - -
22/03:00am 17.0 W 8 13 1012.8 - 0.0 - - - - - - -
22/02:30am 17.2 W 6 13 1012.9 - 0.0 - - - - - - -
22/02:00am 17.4 W 6 10 1012.6 - 0.0 - - - - - - -
22/01:30am 17.5 WNW 6 13 1012.5 - 0.0 - - - - - - -
22/01:00am 17.4 NNW 16 23 1011.8 - 0.0 - - - - - - -
22/12:30am 17.0 NNW 15 20 1012.3 - 0.0 - - - - - - -
22/12:00am 17.1 NNW 17 23 1012.5 - 0.0 - - - - - - -
 
Date/Time
EST
Temp

°C
Wind Pressure Rain
since 9am
mm
Weather Cloud Vis
km
Sea
Height
m
Swell
Dir
 
Speed
knots
Gust
knots
hPa Trend Height
m
Period
s
Dir
21/11:30pm 17.2 NNW 19 25 1012.6 - 0.0 - - - - - - -
21/11:00pm 17.2 NNW 19 24 1012.8 - 0.0 - - - - - - -
21/10:30pm 17.1 N 20 25 1013.0 - 0.0 - - - - - - -
21/10:00pm 17.2 N 22 26 1013.2 - 0.0 - - - - - - -
21/09:30pm 17.1 NNW 18 24 1013.2 - 0.0 - - - - - - -
21/09:00pm 17.3 N 21 27 1013.0 - 0.0 - - - - - - -
21/08:30pm 17.3 NNW 21 26 1013.2 - 0.0 - - - - - - -
21/08:00pm 17.4 NNW 20 25 1013.3 - 0.0 - - - - - - -
21/07:30pm 17.3 NNW 18 23 1013.4 - 0.0 - - - - - - -
21/07:00pm 17.6 N 19 25 1013.3 - 0.0 - - - - - - -
21/06:30pm 17.6 N 18 23 1013.3 - 0.0 - - - - - - -
21/06:00pm 17.9 N 18 25 1013.2 - 0.0 - - - - - - -
21/05:30pm 17.9 N 15 19 1013.2 - 0.0 - - - - - - -
21/05:00pm 18.1 N 19 24 1013.3 - 0.0 - - - - - - -
21/04:30pm 18.0 N 16 22 1013.5 - 0.0 - - - - - - -
21/04:00pm 18.0 N 12 20 1013.9 - 0.0 - - - - - - -
21/03:30pm 18.1 N 13 17 1014.4 - 0.0 - - - - - - -
21/03:00pm 18.0 N 11 14 1014.9 - 0.0 - - - - - - -
21/02:30pm 17.9 N 16 21 1015.3 - 0.0 - - - - - - -
21/02:00pm 18.0 N 17 22 1015.2 - 0.0 - - - - - - -
21/01:30pm 18.0 N 20 25 1015.0 - 0.0 - - - - - - -
21/01:00pm 18.3 N 18 24 1015.3 - 0.0 - - - - - - -
21/12:30pm 18.6 N 18 23 1015.8 - 0.0 - - - - - - -
21/12:00pm 18.4 N 16 20 1016.5 - 0.0 - - - - - - -
21/11:30am 18.8 N 16 21 1016.9 - 0.0 - - - - - - -
21/11:00am 17.7 N 13 18 1017.5 - 0.0 - - - - - - -
21/10:30am 16.2 N 15 19 1017.8 - 0.0 - - - - - - -
21/10:00am 15.9 N 15 20 1017.9 - 0.0 - - - - - - -
21/09:30am 15.0 N 12 17 1018.4 - 0.0 - - - - - - -
21/09:00am 14.6 N 14 19 1018.5 - 0.0 - - - - - - -
21/08:30am 14.6 NNW 15 22 1018.4 - 0.0 - - - - - - -
21/08:00am 14.6 N 15 20 1018.2 - 0.0 - - - - - - -
21/07:30am 14.4 N 12 18 1018.3 - 0.0 - - - - - - -
21/07:00am 13.8 N 11 15 1018.4 - 0.0 - - - - - - -
21/06:30am 14.0 N 14 17 1018.0 - 0.0 - - - - - - -
21/06:00am 14.2 N 18 22 1017.7 - 0.0 - - - - - - -
21/05:30am 14.4 N 17 21 1017.7 - 0.0 - - - - - - -
21/05:00am 14.7 NNW 16 21 1017.6 - 0.0 - - - - - - -
21/04:30am 14.6 NNW 15 19 1017.4 - 0.0 - - - - - - -
21/04:00am 14.6 NNW 14 21 1017.4 - 0.0 - - - - - - -

Other Formats:

Comma delimited format used in spreadsheet applications
http://www.bom.gov.au/fwo/IDV60701/IDV60701.94892.axf

JavaScript Object Notation format (JSON) in row-major order
http://www.bom.gov.au/fwo/IDV60701/IDV60701.94892.json